Leland Grove, Illinois
Current Conditions -  °F | °C
As of 9:52 AM on Thursday 30 Oct 2014 (Local Time) from KSPI Reporting Station
Few Clouds Few Clouds  
Wind Chill: 45°   Ceiling: Unl
Heat Index: 49°   Visibility: 10mi
Dew Point: 39°   Wind: 10mph
Humidity: 69%   Direction: 170°S
Pressure: 30.14"   Gusts: NA
Location:  39.7725°N, 89.6857°W
Report Text: KSPI 301452Z 17009KT 10SM FEW095 09/04 A3014 RMK AO2 SLP211 T00940039 58003
Loading
Personal Weather Stations






























Interactive Weather Map
Tropical Storm Tracking
New forecast layout! Learn more

10-Day Weather Forecast

Advertisements
Track Severe Weather on mobile